Time;durP1;ratioP1;P1;durP2;ratioP2;P2;SDS_P1;SDS_P2;PMS_P1;PMS_P2;Temp;Humidity;BMP_temperature;BMP_pressure;BME280_temperature;BME280_humidity;BME280_pressure;Samples;Min_cycle;Max_cycle;Signal;HPM_P1;HPM_P2
2021/04/29 00:01:10;;;;;;;60.70;37.17;;;;;;;9.97;100.00;94439.72;10373267;28;20112;-83
2021/04/29 00:06:10;;;;;;;60.22;38.88;;;;;;;10.07;100.00;94437.78;10372613;28;20026;-81
2021/04/29 00:11:11;;;;;;;59.38;37.47;;;;;;;10.17;100.00;94452.22;10355026;28;20184;-81
2021/04/29 00:16:11;;;;;;;64.72;36.35;;;;;;;9.96;100.00;94446.94;10372945;28;20041;-81
2021/04/29 00:21:12;;;;;;;57.85;34.25;;;;;;;9.91;100.00;94458.53;10372851;28;20026;-81
2021/04/29 00:26:12;;;;;;;58.35;35.08;;;;;;;9.87;100.00;94460.16;10372293;28;20461;-80
2021/04/29 00:31:13;;;;;;;51.80;30.75;;;;;;;9.85;100.00;94458.81;10372744;28;20030;-81
2021/04/29 00:36:13;;;;;;;52.72;31.92;;;;;;;9.81;100.00;94460.44;10368489;28;20112;-81
2021/04/29 00:41:14;;;;;;;51.38;32.10;;;;;;;10.00;100.00;94457.97;10368454;28;20092;-81
2021/04/29 00:46:14;;;;;;;50.10;30.52;;;;;;;9.95;100.00;94460.66;10370370;28;20154;-82
2021/04/29 00:51:17;;;;;;;57.57;32.47;;;;;;;9.94;100.00;94459.06;10371989;28;20061;-81
2021/04/29 00:56:17;;;;;;;54.42;31.88;;;;;;;10.16;100.00;94455.97;10372346;28;20033;-81
2021/04/29 01:01:21;;;;;;;57.43;33.90;;;;;;;10.26;100.00;94459.41;10371961;28;20473;-82
2021/04/29 01:06:42;;;;;;;52.20;31.33;;;;;;;10.32;100.00;94457.50;10371735;28;20026;-81
2021/04/29 01:11:47;;;;;;;54.00;33.05;;;;;;;10.34;100.00;94455.38;10372036;28;20084;-82
2021/04/29 01:16:48;;;;;;;51.42;33.22;;;;;;;10.37;100.00;94460.19;10380460;28;20034;-82
2021/04/29 01:21:48;;;;;;;52.95;32.55;;;;;;;10.35;100.00;94458.88;10362283;28;20555;-82
2021/04/29 01:26:54;;;;;;;43.17;29.08;;;;;;;10.42;100.00;94460.19;10374649;28;20451;-83
2021/04/29 01:31:56;;;;;;;48.13;27.15;;;;;;;10.35;100.00;94466.94;10356738;28;20449;-76
2021/04/29 01:36:56;;;;;;;41.17;24.65;;;;;;;10.35;100.00;94470.41;10374273;28;20037;-80
2021/04/29 01:41:59;;;;;;;44.17;25.58;;;;;;;10.27;100.00;94471.00;10377651;28;20038;-81
2021/04/29 01:47:01;;;;;;;41.53;24.73;;;;;;;10.15;100.00;94475.88;10377672;28;20168;-80
2021/04/29 01:52:01;;;;;;;37.95;25.30;;;;;;;10.11;100.00;94482.88;10376734;28;20032;-83
2021/04/29 01:57:02;;;;;;;37.40;23.73;;;;;;;10.15;100.00;94474.00;10373886;28;20029;-81
2021/04/29 02:02:02;;;;;;;45.37;24.47;;;;;;;10.09;100.00;94473.22;10373894;28;20022;-82
2021/04/29 02:07:03;;;;;;;44.92;26.02;;;;;;;9.77;100.00;94467.44;10378111;28;20291;-81
2021/04/29 02:12:04;;;;;;;38.35;25.77;;;;;;;9.84;100.00;94465.28;10377763;28;20053;-81
2021/04/29 02:17:28;;;;;;;43.60;26.02;;;;;;;9.77;100.00;94462.06;10377829;28;20030;-81
2021/04/29 02:22:30;;;;;;;44.40;25.33;;;;;;;9.71;100.00;94462.13;10376588;28;20109;-81
2021/04/29 02:27:33;;;;;;;47.47;27.23;;;;;;;9.67;100.00;94470.97;10376318;28;20492;-81
2021/04/29 02:32:33;;;;;;;47.95;26.45;;;;;;;9.61;100.00;94478.22;10377282;28;20018;-81
2021/04/29 02:37:35;;;;;;;45.90;24.95;;;;;;;9.62;100.00;94495.16;10376659;28;20489;-80
2021/04/29 02:42:38;;;;;;;46.28;27.25;;;;;;;9.56;100.00;94478.25;10376252;28;20129;-80
2021/04/29 02:47:52;;;;;;;43.20;25.50;;;;;;;9.48;100.00;94481.50;10376467;28;20032;-80
2021/04/29 02:52:53;;;;;;;48.08;27.48;;;;;;;9.48;100.00;94484.97;10359142;28;20083;-80
2021/04/29 02:58:06;;;;;;;43.95;25.02;;;;;;;9.45;100.00;94484.72;10358472;28;20030;-80
2021/04/29 03:03:08;;;;;;;48.95;28.38;;;;;;;9.31;100.00;94489.84;10375672;28;20547;-80
2021/04/29 03:08:08;;;;;;;62.17;33.83;;;;;;;9.16;100.00;94490.66;10375257;28;20038;-80
2021/04/29 03:13:09;;;;;;;70.32;32.63;;;;;;;9.14;100.00;94501.66;10375126;28;20030;-81
2021/04/29 03:18:09;;;;;;;64.50;35.00;;;;;;;9.24;100.00;94500.84;10376580;28;20488;-80
2021/04/29 03:23:10;;;;;;;58.33;32.13;;;;;;;9.29;100.00;94505.41;10374749;28;20323;-81
2021/04/29 03:28:10;;;;;;;55.20;32.55;;;;;;;9.28;100.00;94511.81;10374833;28;20276;-80
2021/04/29 03:33:11;;;;;;;59.17;30.20;;;;;;;9.21;100.00;94520.16;10374401;28;20087;-80
2021/04/29 03:38:11;;;;;;;56.13;32.03;;;;;;;9.26;100.00;94535.44;10373936;28;20613;-80
2021/04/29 03:43:11;;;;;;;58.40;32.10;;;;;;;9.31;100.00;94543.50;10373543;28;20073;-81
2021/04/29 03:48:13;;;;;;;55.97;29.03;;;;;;;9.37;100.00;94540.50;10372368;28;20379;-80
2021/04/29 03:53:13;;;;;;;57.20;31.13;;;;;;;9.42;100.00;94539.72;10367992;28;20018;-77
2021/04/29 03:58:14;;;;;;;51.60;29.90;;;;;;;9.47;100.00;94549.63;10368758;28;20040;-75
2021/04/29 04:03:14;;;;;;;52.67;30.73;;;;;;;9.53;100.00;94544.00;10368428;28;20029;-76
2021/04/29 04:08:14;;;;;;;45.93;28.90;;;;;;;9.68;100.00;94553.88;10368543;28;20033;-76
2021/04/29 04:13:19;;;;;;;54.77;31.87;;;;;;;9.84;100.00;94548.50;10367881;28;20265;-76
2021/04/29 04:18:20;;;;;;;47.03;28.80;;;;;;;9.96;100.00;94554.34;10368110;28;20095;-73
2021/04/29 04:23:20;;;;;;;51.88;29.48;;;;;;;10.14;100.00;94561.00;10367138;28;20076;-74
2021/04/29 04:28:20;;;;;;;54.47;28.87;;;;;;;10.17;100.00;94556.97;10366955;28;20018;-75
2021/04/29 04:33:21;;;;;;;52.33;31.40;;;;;;;10.16;100.00;94566.91;10366501;28;20268;-75
2021/04/29 04:38:21;;;;;;;60.55;30.58;;;;;;;10.09;100.00;94569.09;10348678;28;20041;-75
2021/04/29 04:43:22;;;;;;;70.13;35.20;;;;;;;10.16;100.00;94568.78;10398028;28;20041;-75
2021/04/29 04:48:22;;;;;;;72.45;35.75;;;;;;;10.03;100.00;94575.53;10404474;28;20091;-77
2021/04/29 04:53:23;;;;;;;89.07;38.33;;;;;;;9.87;100.00;94583.63;10388448;28;20055;-76
2021/04/29 04:58:23;;;;;;;82.60;39.28;;;;;;;10.14;100.00;94585.16;10405250;28;20034;-76
2021/04/29 05:03:24;;;;;;;76.53;36.07;;;;;;;10.74;100.00;94590.59;10378328;28;20392;-75
2021/04/29 05:08:24;;;;;;;66.85;30.75;;;;;;;10.85;100.00;94577.06;10365420;28;20503;-77
2021/04/29 05:13:25;;;;;;;57.65;31.02;;;;;;;10.83;100.00;94577.34;10374444;28;20026;-76
2021/04/29 05:18:26;;;;;;;57.63;30.92;;;;;;;11.35;100.00;94571.63;10381271;28;20021;-76
2021/04/29 05:23:26;;;;;;;52.35;28.90;;;;;;;11.84;100.00;94551.78;10404340;28;20066;-76
2021/04/29 05:28:26;;;;;;;45.73;26.10;;;;;;;12.32;100.00;94559.06;10404517;28;20029;-76
2021/04/29 05:33:27;;;;;;;46.80;26.45;;;;;;;12.53;100.00;94550.72;10404020;28;20021;-77
2021/04/29 05:38:27;;;;;;;37.63;20.83;;;;;;;13.24;100.00;94557.00;10403811;28;20506;-77
2021/04/29 05:43:28;;;;;;;49.53;25.50;;;;;;;13.93;100.00;94556.41;10404495;28;20054;-73
2021/04/29 05:48:29;;;;;;;45.00;24.87;;;;;;;13.87;100.00;94559.47;10404740;28;20021;-74
2021/04/29 05:53:29;;;;;;;47.95;25.15;;;;;;;13.34;100.00;94559.53;10386499;28;20527;-73
2021/04/29 05:58:30;;;;;;;50.97;27.10;;;;;;;13.28;100.00;94562.59;10405805;28;20033;-74
2021/04/29 06:03:30;;;;;;;38.40;22.83;;;;;;;13.56;100.00;94570.81;10404706;28;20091;-75
2021/04/29 06:08:30;;;;;;;49.13;26.87;;;;;;;12.69;100.00;94564.81;10370411;28;20037;-78
2021/04/29 06:13:31;;;;;;;48.50;23.70;;;;;;;12.85;100.00;94563.53;10370701;28;20021;-79
2021/04/29 06:18:32;;;;;;;42.67;23.77;;;;;;;12.91;100.00;94575.84;10352273;28;20811;-79
2021/04/29 06:23:33;;;;;;;46.42;25.05;;;;;;;13.28;100.00;94581.50;10368934;28;20030;-79
2021/04/29 06:28:34;;;;;;;36.30;21.20;;;;;;;14.79;100.00;94573.09;10369946;28;20136;-79
2021/04/29 06:33:34;;;;;;;39.85;22.77;;;;;;;15.34;100.00;94572.94;10352337;28;20044;-72
2021/04/29 06:38:36;;;;;;;46.53;25.77;;;;;;;16.10;100.00;94576.78;10368606;28;20026;-71
2021/04/29 06:43:37;;;;;;;40.58;22.17;;;;;;;16.57;100.00;94582.53;10368969;28;20417;-72
2021/04/29 06:48:38;;;;;;;56.88;26.08;;;;;;;16.80;100.00;94574.31;10368384;28;20033;-74
2021/04/29 06:53:39;;;;;;;44.75;25.00;;;;;;;14.81;100.00;94574.41;10368525;28;20116;-72
2021/04/29 06:58:39;;;;;;;44.93;25.80;;;;;;;15.29;100.00;94575.75;10369216;28;20030;-72
2021/04/29 07:03:39;;;;;;;42.93;24.27;;;;;;;16.69;100.00;94565.66;10375147;28;20365;-72
2021/04/29 07:08:40;;;;;;;46.10;22.13;;;;;;;18.43;100.00;94563.94;10408415;28;20112;-73
2021/04/29 07:13:40;;;;;;;41.07;20.40;;;;;;;17.40;100.00;94569.25;10408129;28;20506;-72
2021/04/29 07:18:41;;;;;;;42.85;20.15;;;;;;;18.05;100.00;94572.06;10408634;28;20021;-72
2021/04/29 07:23:41;;;;;;;39.70;19.27;;;;;;;19.94;100.00;94555.16;10407594;28;20025;-75
2021/04/29 07:28:43;;;;;;;33.93;19.47;;;;;;;20.66;100.00;94560.22;10407427;28;20021;-75
2021/04/29 07:33:43;;;;;;;35.47;18.42;;;;;;;22.16;88.21;94559.50;10390165;28;20022;-78
2021/04/29 07:38:43;;;;;;;38.67;18.23;;;;;;;22.22;77.99;94553.75;10407554;28;20021;-75
2021/04/29 07:43:44;;;;;;;31.93;17.13;;;;;;;22.90;74.44;94552.69;10406075;28;20598;-76
2021/04/29 07:48:44;;;;;;;27.23;14.07;;;;;;;24.58;69.34;94545.41;10388694;28;20480;-76
2021/04/29 07:53:44;;;;;;;34.20;13.40;;;;;;;25.51;58.49;94545.22;10407622;28;20029;-75
2021/04/29 07:58:46;;;;;;;19.40;11.67;;;;;;;26.39;48.92;94543.06;10406438;28;20276;-81
2021/04/29 08:03:47;;;;;;;28.25;12.38;;;;;;;26.72;49.73;94527.59;10401819;28;20072;-82
2021/04/29 08:08:47;;;;;;;22.63;12.53;;;;;;;26.71;45.84;94539.78;10367817;28;20118;-81
2021/04/29 08:13:48;;;;;;;25.17;11.80;;;;;;;26.35;45.38;94537.50;10369600;28;20755;-82
2021/04/29 08:18:49;;;;;;;30.15;12.60;;;;;;;26.88;44.75;94538.38;10350812;28;20497;-81
2021/04/29 08:23:49;;;;;;;24.98;11.98;;;;;;;28.12;44.21;94530.31;10351211;28;20030;-81
2021/04/29 08:28:50;;;;;;;21.67;11.47;;;;;;;29.54;40.44;94534.63;10368543;28;20109;-81
2021/04/29 08:33:50;;;;;;;21.70;10.65;;;;;;;29.51;41.13;94525.13;10368406;28;20030;-82
2021/04/29 08:38:51;;;;;;;32.77;11.23;;;;;;;29.69;37.17;94518.75;10368136;28;20076;-81
2021/04/29 08:43:51;;;;;;;19.67;9.97;;;;;;;30.85;36.64;94506.56;10366386;28;20054;-82
2021/04/29 08:48:54;;;;;;;22.95;10.48;;;;;;;30.33;37.13;94517.63;10367066;28;20072;-82
2021/04/29 08:53:55;;;;;;;20.63;9.98;;;;;;;31.14;36.78;94497.19;10367486;28;20104;-81
2021/04/29 08:59:00;;;;;;;21.50;9.15;;;;;;;31.53;33.45;94507.84;10365222;28;20076;-82
2021/04/29 09:04:11;;;;;;;18.15;7.45;;;;;;;32.43;33.70;94500.34;10374698;28;20112;-81
2021/04/29 09:09:16;;;;;;;18.13;8.82;;;;;;;32.83;33.10;94486.59;10405657;28;20120;-82
2021/04/29 09:14:31;;;;;;;15.77;8.82;;;;;;;33.51;32.54;94486.59;10406306;28;20212;-82
2021/04/29 09:19:35;;;;;;;18.55;8.45;;;;;;;33.82;32.07;94476.00;10406685;28;20033;-82
2021/04/29 09:24:38;;;;;;;14.55;8.10;;;;;;;34.24;30.61;94467.91;10406057;28;20065;-82
2021/04/29 09:29:58;;;;;;;16.67;8.43;;;;;;;34.45;30.17;94468.66;10405413;28;20041;-82
2021/04/29 09:35:00;;;;;;;16.38;8.38;;;;;;;34.78;31.27;94468.66;10408696;28;20034;-82
2021/04/29 09:40:18;;;;;;;19.15;8.05;;;;;;;35.05;30.00;94468.38;10413247;28;20048;-81
2021/04/29 09:45:28;;;;;;;17.92;7.32;;;;;;;33.65;32.58;94475.16;10413267;28;20077;-82
2021/04/29 09:50:33;;;;;;;19.45;8.60;;;;;;;32.64;33.13;94467.81;10412819;28;20090;-80
2021/04/29 09:55:37;;;;;;;22.43;8.40;;;;;;;33.81;31.61;94463.31;10412901;28;20447;-82
2021/04/29 10:00:37;;;;;;;15.45;7.43;;;;;;;34.58;31.04;94455.56;10413173;28;20025;-82
2021/04/29 10:05:40;;;;;;;17.17;7.50;;;;;;;35.80;28.75;94447.94;10389328;28;20030;-81
2021/04/29 10:10:46;;;;;;;23.08;7.60;;;;;;;35.64;28.59;94442.44;10372481;28;20026;-81
2021/04/29 10:15:47;;;;;;;16.33;7.00;;;;;;;35.45;28.77;94447.00;10354294;28;20153;-81
2021/04/29 10:20:49;;;;;;;24.25;7.90;;;;;;;35.90;29.62;94434.91;10371522;28;20067;-81
2021/04/29 10:26:00;;;;;;;16.42;7.15;;;;;;;36.73;27.87;94430.28;10371495;28;20026;-81
2021/04/29 10:31:14;;;;;;;15.73;6.60;;;;;;;36.83;27.22;94419.19;10370724;28;20025;-81
2021/04/29 10:36:15;;;;;;;16.15;7.07;;;;;;;35.93;27.63;94426.41;10370926;28;20125;-81
2021/04/29 10:41:22;;;;;;;13.65;6.93;;;;;;;36.68;26.44;94416.84;10370487;28;20101;-81
2021/04/29 10:46:31;;;;;;;16.00;6.97;;;;;;;36.25;25.67;94410.63;10368879;28;20378;-81
2021/04/29 10:51:38;;;;;;;14.95;6.22;;;;;;;37.99;26.08;94416.63;10370173;28;20558;-81
2021/04/29 10:56:39;;;;;;;13.30;5.95;;;;;;;36.43;26.18;94417.69;10369629;28;20112;-81
2021/04/29 11:01:49;;;;;;;17.02;5.65;;;;;;;38.35;24.70;94404.00;10370642;28;20048;-80
2021/04/29 11:06:49;;;;;;;14.15;6.22;;;;;;;37.80;26.86;94410.13;10402538;28;20040;-81
2021/04/29 11:12:05;;;;;;;13.57;6.13;;;;;;;34.07;28.25;94396.59;10409742;28;20037;-80
2021/04/29 11:17:05;;;;;;;17.45;7.18;;;;;;;31.33;32.15;94404.16;10409234;28;20033;-80
2021/04/29 11:22:07;;;;;;;21.38;7.93;;;;;;;29.30;35.82;94395.88;10409710;28;20438;-80
2021/04/29 11:27:33;;;;;;;14.43;7.65;;;;;;;27.98;37.73;94384.63;10409872;28;20028;-80
2021/04/29 11:32:38;;;;;;;18.83;7.43;;;;;;;26.95;39.84;94386.72;10402902;28;20052;-80
2021/04/29 11:37:43;;;;;;;13.60;7.13;;;;;;;25.94;45.64;94380.50;10409303;28;20033;-80
2021/04/29 11:42:54;;;;;;;22.10;7.78;;;;;;;25.23;43.48;94364.88;10408276;28;20045;-80
2021/04/29 11:48:09;;;;;;;17.60;7.15;;;;;;;24.95;47.06;94355.16;10414457;28;20060;-81
2021/04/29 11:53:15;;;;;;;13.82;7.07;;;;;;;24.60;45.68;94353.50;10409387;28;20086;-79
2021/04/29 11:58:18;;;;;;;16.02;7.47;;;;;;;24.20;48.52;94354.91;10407602;28;20484;-80
2021/04/29 12:03:21;;;;;;;16.17;7.10;;;;;;;23.78;47.88;94362.09;10403217;28;20113;-79
2021/04/29 12:08:24;;;;;;;16.23;5.63;;;;;;;23.64;47.01;94359.09;10367762;28;20025;-80
2021/04/29 12:13:29;;;;;;;15.95;5.60;;;;;;;23.76;47.68;94347.13;10367150;28;20087;-81
2021/04/29 12:18:30;;;;;;;18.30;6.75;;;;;;;23.88;46.18;94341.50;10366714;28;20101;-80
2021/04/29 12:23:30;;;;;;;17.38;7.30;;;;;;;23.68;48.27;94335.25;10366944;28;20034;-81
2021/04/29 12:28:40;;;;;;;15.57;6.80;;;;;;;23.63;48.00;94322.63;10366805;28;20036;-81
2021/04/29 12:33:54;;;;;;;19.77;7.57;;;;;;;23.43;49.05;94330.16;10366204;28;20272;-81
2021/04/29 12:38:55;;;;;;;16.65;6.65;;;;;;;23.26;48.42;94320.47;10366226;28;20021;-81
2021/04/29 12:43:57;;;;;;;17.35;6.68;;;;;;;23.30;47.72;94315.03;10365184;28;20880;-79
2021/04/29 12:48:58;;;;;;;12.05;5.45;;;;;;;23.18;46.95;94307.78;10365649;28;20033;-80
2021/04/29 12:54:07;;;;;;;17.98;5.82;;;;;;;23.34;49.56;94296.69;10366092;28;20025;-80
2021/04/29 12:59:13;;;;;;;20.70;5.97;;;;;;;23.43;49.45;94299.97;10365883;28;20416;-80
2021/04/29 13:04:26;;;;;;;19.83;5.32;;;;;;;23.59;48.69;94297.09;10377574;28;20029;-80
2021/04/29 13:09:34;;;;;;;11.45;4.88;;;;;;;23.91;46.61;94294.09;10405818;28;20025;-80
2021/04/29 13:14:40;;;;;;;16.52;5.88;;;;;;;23.65;46.45;94295.63;10405677;28;20106;-80
2021/04/29 13:19:43;;;;;;;21.25;5.85;;;;;;;23.96;46.13;94295.72;10419711;28;20030;-80
2021/04/29 13:24:44;;;;;;;17.23;4.88;;;;;;;24.23;44.51;94308.28;10405756;28;20037;-80
2021/04/29 13:29:45;;;;;;;16.15;4.80;;;;;;;24.06;43.36;94295.09;10406160;28;20025;-80
2021/04/29 13:34:46;;;;;;;10.90;5.05;;;;;;;23.87;43.19;94302.25;10405760;28;20021;-80
2021/04/29 13:39:47;;;;;;;19.88;4.80;;;;;;;23.75;43.60;94301.66;10405988;28;20029;-82
2021/04/29 13:44:47;;;;;;;13.07;4.60;;;;;;;23.62;46.95;94303.81;10388569;28;20041;-81
2021/04/29 13:49:47;;;;;;;17.00;5.20;;;;;;;23.43;45.39;94290.94;10405344;28;20272;-82
2021/04/29 13:54:48;;;;;;;12.70;4.23;;;;;;;23.18;48.53;94291.31;10406727;28;20033;-80
2021/04/29 13:59:49;;;;;;;14.43;5.60;;;;;;;23.08;49.54;94292.69;10404996;28;20044;-80
2021/04/29 14:04:49;;;;;;;13.75;5.43;;;;;;;23.01;48.20;94287.88;10387630;28;20293;-80
2021/04/29 14:09:50;;;;;;;12.47;4.47;;;;;;;22.82;48.62;94269.50;10364216;28;20034;-80
2021/04/29 14:14:50;;;;;;;11.77;4.07;;;;;;;22.63;49.46;94270.34;10364427;28;20277;-80
2021/04/29 14:19:50;;;;;;;9.57;4.07;;;;;;;22.68;49.00;94275.50;10365574;28;20284;-78
2021/04/29 14:24:51;;;;;;;11.67;4.30;;;;;;;22.65;48.80;94272.72;10370261;28;20472;-77
2021/04/29 14:29:51;;;;;;;15.47;5.23;;;;;;;22.58;48.51;94262.41;10370151;28;20026;-80
2021/04/29 14:34:53;;;;;;;9.82;4.30;;;;;;;22.51;48.71;94270.47;10369685;28;20269;-80
2021/04/29 14:39:53;;;;;;;13.65;4.47;;;;;;;22.62;48.36;94255.06;10369771;28;20536;-80
2021/04/29 14:44:54;;;;;;;14.13;4.87;;;;;;;22.58;49.61;94267.88;10370079;28;20056;-79
2021/04/29 14:49:54;;;;;;;9.17;3.60;;;;;;;22.72;49.01;94263.81;10370014;28;20033;-79
2021/04/29 14:54:55;;;;;;;8.77;3.63;;;;;;;22.82;49.24;94274.19;10370426;28;20036;-78
2021/04/29 14:59:55;;;;;;;11.77;4.03;;;;;;;22.76;49.01;94265.50;10352281;28;20032;-78
2021/04/29 15:04:56;;;;;;;9.23;3.33;;;;;;;22.78;51.50;94276.09;10387144;28;20036;-77
2021/04/29 15:09:57;;;;;;;8.98;4.35;;;;;;;22.67;52.27;94265.69;10409870;28;20021;-78
2021/04/29 15:14:57;;;;;;;8.43;4.28;;;;;;;22.59;54.78;94258.53;10410568;28;20388;-77
2021/04/29 15:19:58;;;;;;;11.32;4.90;;;;;;;22.46;57.35;94259.81;10410563;28;20546;-77
2021/04/29 15:24:58;;;;;;;12.20;5.60;;;;;;;22.05;59.64;94264.78;10408677;28;20099;-80
2021/04/29 15:29:59;;;;;;;15.83;5.47;;;;;;;21.98;59.15;94259.97;10409745;28;20069;-81
2021/04/29 15:34:59;;;;;;;12.13;5.35;;;;;;;21.85;59.70;94246.41;10409951;28;20303;-80
2021/04/29 15:39:59;;;;;;;15.03;5.87;;;;;;;21.77;61.82;94257.53;10409406;28;20452;-80
2021/04/29 15:45:00;;;;;;;11.30;5.30;;;;;;;21.59;63.02;94262.63;10407779;28;20300;-80
2021/04/29 15:50:00;;;;;;;11.10;5.47;;;;;;;21.53;64.34;94253.91;10409536;28;20033;-80
2021/04/29 15:55:00;;;;;;;15.53;5.90;;;;;;;21.43;65.56;94248.91;10408998;28;20037;-79
2021/04/29 16:00:08;;;;;;;17.00;6.03;;;;;;;21.48;65.05;94246.72;10407678;28;20778;-79
2021/04/29 16:05:11;;;;;;;10.90;5.90;;;;;;;21.59;64.75;94241.53;10388709;28;20117;-80
2021/04/29 16:10:12;;;;;;;23.55;6.72;;;;;;;21.61;62.68;94233.75;10366591;28;20052;-79
2021/04/29 16:15:12;;;;;;;17.15;5.50;;;;;;;21.64;62.45;94241.25;10366963;28;20025;-79
2021/04/29 16:20:13;;;;;;;13.35;5.97;;;;;;;21.50;63.08;94238.97;10367172;28;20033;-82
2021/04/29 16:25:14;;;;;;;14.23;6.45;;;;;;;21.00;61.78;94243.19;10365697;28;20048;-79
2021/04/29 16:30:15;;;;;;;11.90;6.10;;;;;;;20.65;64.34;94250.09;10365980;28;20029;-80
2021/04/29 16:35:16;;;;;;;9.60;5.75;;;;;;;20.49;63.21;94254.72;10349045;28;20018;-80
2021/04/29 16:40:16;;;;;;;18.02;6.45;;;;;;;20.33;61.42;94246.47;10365709;28;20030;-80
2021/04/29 16:45:17;;;;;;;12.88;4.88;;;;;;;20.17;61.17;94240.97;10368706;28;20068;-80
2021/04/29 16:50:19;;;;;;;13.88;5.28;;;;;;;20.04;60.58;94244.88;10406779;28;20086;-79
2021/04/29 16:55:19;;;;;;;11.43;5.63;;;;;;;20.01;60.19;94251.81;10406538;28;20135;-81
2021/04/29 17:00:23;;;;;;;14.82;4.72;;;;;;;19.94;61.24;94262.50;10404373;28;20112;-81
2021/04/29 17:05:23;;;;;;;16.38;6.18;;;;;;;19.80;63.38;94257.41;10405521;28;20038;-80
2021/04/29 17:10:24;;;;;;;17.25;5.53;;;;;;;19.73;64.77;94266.16;10404996;28;20163;-80
2021/04/29 17:15:24;;;;;;;16.80;5.40;;;;;;;19.55;66.51;94272.97;10405666;28;20025;-80
2021/04/29 17:20:25;;;;;;;11.00;5.63;;;;;;;19.36;70.24;94285.25;10406433;28;20037;-80
2021/04/29 17:25:25;;;;;;;10.48;5.90;;;;;;;19.16;70.38;94294.31;10403942;28;20039;-80
2021/04/29 17:30:26;;;;;;;14.38;5.78;;;;;;;19.11;72.23;94303.50;10405405;28;20045;-80
2021/04/29 17:35:26;;;;;;;18.95;6.65;;;;;;;19.02;74.42;94305.50;10405402;28;20425;-80
2021/04/29 17:40:27;;;;;;;17.80;5.93;;;;;;;18.85;73.93;94326.34;10404986;28;20040;-81
2021/04/29 17:45:28;;;;;;;14.98;5.75;;;;;;;18.81;75.64;94339.03;10405139;28;20060;-79
2021/04/29 17:50:28;;;;;;;19.70;5.78;;;;;;;18.77;71.13;94338.91;10405362;28;20029;-78
2021/04/29 17:55:29;;;;;;;17.47;5.40;;;;;;;18.57;70.91;94343.25;10408120;28;20037;-79
2021/04/29 18:00:29;;;;;;;15.55;5.40;;;;;;;18.58;68.20;94354.94;10412097;28;20037;-79
2021/04/29 18:05:30;;;;;;;14.68;5.85;;;;;;;18.42;69.96;94360.97;10389656;28;20108;-79
2021/04/29 18:10:30;;;;;;;13.43;4.43;;;;;;;18.26;70.76;94368.13;10371885;28;20041;-80
2021/04/29 18:15:31;;;;;;;13.47;5.57;;;;;;;18.26;69.57;94377.06;10371695;28;20520;-79
2021/04/29 18:20:32;;;;;;;13.27;4.88;;;;;;;18.18;70.28;94385.31;10371163;28;20382;-80
2021/04/29 18:25:32;;;;;;;14.10;5.28;;;;;;;18.17;69.21;94380.97;10371474;28;20022;-77
2021/04/29 18:30:33;;;;;;;9.40;4.68;;;;;;;18.10;69.28;94389.69;10370046;28;20026;-77
2021/04/29 18:35:33;;;;;;;11.52;4.30;;;;;;;18.09;70.10;94388.88;10351602;28;20526;-77
2021/04/29 18:40:34;;;;;;;9.33;4.53;;;;;;;17.89;72.47;94397.78;10370387;28;20041;-77
2021/04/29 18:45:34;;;;;;;17.80;4.97;;;;;;;17.82;71.27;94395.56;10368955;28;20133;-77
2021/04/29 18:50:35;;;;;;;8.07;4.40;;;;;;;17.84;69.45;94408.81;10369320;28;20501;-77
2021/04/29 18:55:36;;;;;;;11.63;4.38;;;;;;;17.83;70.23;94408.00;10370046;28;20281;-78
2021/04/29 19:00:40;;;;;;;11.52;4.85;;;;;;;17.68;72.22;94414.81;10369001;28;20034;-77
2021/04/29 19:05:41;;;;;;;9.73;4.40;;;;;;;17.60;74.14;94407.50;10374464;28;20477;-77
2021/04/29 19:10:42;;;;;;;13.40;5.63;;;;;;;17.48;79.66;94413.59;10410132;28;20033;-77
2021/04/29 19:15:42;;;;;;;12.33;5.17;;;;;;;17.36;80.82;94403.41;10409061;28;20017;-77
2021/04/29 19:20:43;;;;;;;15.68;4.75;;;;;;;17.30;81.63;94415.56;10409422;28;20276;-77
2021/04/29 19:25:43;;;;;;;9.50;4.80;;;;;;;17.22;86.17;94424.53;10409578;28;20037;-77
2021/04/29 19:30:44;;;;;;;14.40;6.00;;;;;;;17.17;88.57;94428.22;10408679;28;20439;-77
2021/04/29 19:35:44;;;;;;;18.20;6.57;;;;;;;16.98;96.24;94425.88;10408526;28;20022;-77
2021/04/29 19:40:44;;;;;;;16.20;6.88;;;;;;;16.94;99.92;94430.34;10409408;28;20032;-76
2021/04/29 19:45:49;;;;;;;18.65;7.25;;;;;;;16.98;100.00;94427.75;10389757;28;20038;-76
2021/04/29 19:50:50;;;;;;;18.25;6.63;;;;;;;17.01;100.00;94424.41;10407987;28;20042;-75
2021/04/29 19:55:50;;;;;;;15.52;7.78;;;;;;;17.00;100.00;94433.69;10395266;28;20026;-76
2021/04/29 20:00:50;;;;;;;16.30;6.90;;;;;;;17.04;100.00;94435.41;10366126;28;20511;-75
2021/04/29 20:05:51;;;;;;;19.27;7.03;;;;;;;17.04;100.00;94434.63;10391660;28;20116;-76
2021/04/29 20:10:51;;;;;;;17.75;7.43;;;;;;;16.94;100.00;94440.38;10407666;28;20068;-76
2021/04/29 20:15:51;;;;;;;17.87;7.27;;;;;;;16.83;100.00;94437.16;10407176;28;20021;-76
2021/04/29 20:20:52;;;;;;;11.67;7.10;;;;;;;16.88;100.00;94442.44;10407074;28;20026;-76
2021/04/29 20:25:52;;;;;;;21.53;8.30;;;;;;;16.90;100.00;94442.94;10406691;28;20651;-76
2021/04/29 20:30:55;;;;;;;21.10;8.38;;;;;;;16.91;100.00;94441.81;10407041;28;20094;-81
2021/04/29 20:35:55;;;;;;;20.10;8.00;;;;;;;16.95;100.00;94453.63;10390901;28;20024;-80
2021/04/29 20:40:56;;;;;;;26.40;8.73;;;;;;;16.99;100.00;94465.44;10406356;28;20499;-80
2021/04/29 20:45:56;;;;;;;21.00;8.00;;;;;;;17.01;100.00;94484.13;10405975;28;20033;-80
2021/04/29 20:50:56;;;;;;;17.40;8.07;;;;;;;17.10;100.00;94497.72;10406385;28;20033;-80
2021/04/29 20:55:57;;;;;;;13.07;8.27;;;;;;;17.09;100.00;94502.34;10405879;28;20272;-80
2021/04/29 21:00:57;;;;;;;16.40;8.50;;;;;;;16.92;100.00;94508.56;10405917;28;20036;-81
2021/04/29 21:05:58;;;;;;;18.47;10.03;;;;;;;16.88;100.00;94475.00;10405722;28;20029;-80
2021/04/29 21:10:58;;;;;;;19.20;9.10;;;;;;;16.81;100.00;94496.41;10405856;28;20036;-80
2021/04/29 21:15:58;;;;;;;17.70;9.27;;;;;;;16.69;100.00;94469.91;10405822;28;20022;-80
2021/04/29 21:20:59;;;;;;;14.63;8.55;;;;;;;16.70;100.00;94476.91;10405336;28;20278;-81
2021/04/29 21:26:00;;;;;;;25.98;9.38;;;;;;;16.71;100.00;94479.31;10405327;28;20117;-81
2021/04/29 21:31:00;;;;;;;16.95;9.07;;;;;;;16.73;100.00;94495.25;10407870;28;20034;-80
2021/04/29 21:36:01;;;;;;;21.85;9.98;;;;;;;16.70;100.00;94474.19;10411918;28;20020;-80
2021/04/29 21:41:02;;;;;;;15.45;8.98;;;;;;;16.60;100.00;94474.50;10412101;28;20100;-80
2021/04/29 21:46:03;;;;;;;14.52;8.23;;;;;;;16.48;100.00;94480.53;10412539;28;20124;-82
2021/04/29 21:51:03;;;;;;;17.35;8.63;;;;;;;16.30;100.00;94471.56;10412064;28;20037;-80
2021/04/29 21:56:06;;;;;;;19.55;9.50;;;;;;;16.16;100.00;94477.13;10411745;28;20032;-80
2021/04/29 22:01:07;;;;;;;35.92;14.95;;;;;;;16.29;100.00;94467.28;10411945;28;20029;-80
2021/04/29 22:06:10;;;;;;;26.83;8.45;;;;;;;16.23;100.00;94464.72;10410609;28;20133;-80
2021/04/29 22:11:10;;;;;;;19.60;9.07;;;;;;;16.23;100.00;94470.13;10411696;28;20021;-81
2021/04/29 22:16:12;;;;;;;16.55;10.07;;;;;;;16.18;100.00;94489.25;10412453;28;20029;-81
2021/04/29 22:21:13;;;;;;;18.17;9.38;;;;;;;16.27;100.00;94485.78;10411828;28;20388;-80
2021/04/29 22:26:14;;;;;;;17.73;10.57;;;;;;;16.25;100.00;94477.94;10411578;28;20029;-80
2021/04/29 22:31:15;;;;;;;23.98;10.52;;;;;;;16.19;100.00;94481.94;10411941;28;20053;-81
2021/04/29 22:36:16;;;;;;;13.13;9.32;;;;;;;16.17;100.00;94466.00;10411516;28;20072;-82
2021/04/29 22:41:16;;;;;;;17.48;8.63;;;;;;;16.32;100.00;94451.16;10411157;28;20028;-81
2021/04/29 22:46:18;;;;;;;21.27;10.97;;;;;;;16.29;100.00;94448.31;10394269;28;20033;-82
2021/04/29 22:51:18;;;;;;;21.05;11.48;;;;;;;16.12;100.00;94441.72;10411094;28;20037;-81
2021/04/29 22:56:19;;;;;;;26.77;11.10;;;;;;;15.96;100.00;94451.41;10410304;28;20025;-80